Time;durP1;ratioP1;P1;durP2;ratioP2;P2;SDS_P1;SDS_P2;PMS_P1;PMS_P2;Temp;Humidity;BMP_temperature;BMP_pressure;BME280_temperature;BME280_humidity;BME280_pressure;Samples;Min_cycle;Max_cycle;Signal;HPM_P1;HPM_P2
2022/07/04 00:01:14;;;;;;;4.82;2.70;;;18.90;99.90;;;;;;10373471;28;20213;-76
2022/07/04 00:06:36;;;;;;;6.47;2.55;;;18.90;99.90;;;;;;10367628;28;20403;-78
2022/07/04 00:11:57;;;;;;;2.90;2.30;;;18.80;99.90;;;;;;10367519;28;20409;-78
2022/07/04 00:17:18;;;;;;;2.78;2.30;;;18.80;99.90;;;;;;10367607;28;20391;-77
2022/07/04 00:22:40;;;;;;;3.80;2.60;;;18.80;99.90;;;;;;10367293;28;20363;-76
2022/07/04 00:28:01;;;;;;;2.92;2.00;;;18.80;99.90;;;;;;10367365;28;20217;-76
2022/07/04 00:33:23;;;;;;;6.32;3.05;;;18.90;99.90;;;;;;10365873;28;20229;-76
2022/07/04 00:38:45;;;;;;;2.60;2.38;;;18.80;99.90;;;;;;10365375;28;20206;-78
2022/07/04 00:44:08;;;;;;;4.75;2.70;;;18.70;99.90;;;;;;10359522;28;20197;-79
2022/07/04 00:49:32;;;;;;;6.47;2.75;;;18.60;99.90;;;;;;10360205;28;20230;-76
2022/07/04 00:54:53;;;;;;;4.32;2.75;;;18.60;99.90;;;;;;10360666;28;20516;-76
2022/07/04 01:00:15;;;;;;;4.40;2.90;;;18.50;99.90;;;;;;10373697;28;20277;-77
2022/07/04 01:05:38;;;;;;;5.30;2.90;;;18.50;99.90;;;;;;10358645;28;20274;-77
2022/07/04 01:10:59;;;;;;;4.65;3.10;;;18.40;99.90;;;;;;10359623;28;20449;-77
2022/07/04 01:16:21;;;;;;;4.32;2.58;;;18.30;99.90;;;;;;10359425;28;20377;-76
2022/07/04 01:21:43;;;;;;;4.78;2.90;;;18.30;99.90;;;;;;10359156;28;20194;-77
2022/07/04 01:27:04;;;;;;;4.65;3.33;;;18.30;99.90;;;;;;10358330;28;20193;-78
2022/07/04 01:32:26;;;;;;;3.40;2.53;;;18.30;99.90;;;;;;10357718;28;20300;-76
2022/07/04 01:37:47;;;;;;;3.85;3.20;;;18.30;99.90;;;;;;10358311;28;20213;-79
2022/07/04 01:43:08;;;;;;;4.47;3.05;;;18.20;99.90;;;;;;10343656;28;20202;-78
2022/07/04 01:48:30;;;;;;;3.15;2.30;;;18.20;99.90;;;;;;10357776;28;20395;-77
2022/07/04 01:53:51;;;;;;;3.25;2.50;;;18.20;99.90;;;;;;10369425;28;20489;-77
2022/07/04 01:59:13;;;;;;;4.50;3.10;;;18.20;99.90;;;;;;10374969;28;20202;-78
2022/07/04 02:04:34;;;;;;;5.20;2.83;;;18.20;99.90;;;;;;10357528;28;20198;-76
2022/07/04 02:09:56;;;;;;;4.00;2.78;;;18.10;99.90;;;;;;10357497;28;20397;-75
2022/07/04 02:15:17;;;;;;;4.53;3.17;;;18.20;99.90;;;;;;10357417;28;20515;-78
2022/07/04 02:20:39;;;;;;;4.43;3.28;;;18.10;87.10;;;;;;10356842;28;20236;-77
2022/07/04 02:26:00;;;;;;;4.07;2.90;;;18.10;58.40;;;;;;10356701;28;20269;-76
2022/07/04 02:31:22;;;;;;;4.82;3.10;;;18.00;1.00;;;;;;10355490;28;20231;-76
2022/07/04 02:36:43;;;;;;;3.38;2.50;;;18.00;1.00;;;;;;10356795;28;20202;-78
2022/07/04 02:42:05;;;;;;;3.78;2.75;;;18.00;1.00;;;;;;10356191;28;20560;-77
2022/07/04 02:47:27;;;;;;;4.43;2.70;;;18.00;1.00;;;;;;10369422;28;20237;-78
2022/07/04 02:52:48;;;;;;;6.65;2.83;;;18.00;1.00;;;;;;10341100;28;20236;-77
2022/07/04 02:58:09;;;;;;;6.53;3.35;;;18.00;1.00;;;;;;10371744;28;20194;-79
2022/07/04 03:03:30;;;;;;;3.60;2.60;;;18.00;1.00;;;;;;10354870;28;20198;-77
2022/07/04 03:08:52;;;;;;;7.13;3.10;;;18.00;1.00;;;;;;10354014;28;20511;-79
2022/07/04 03:14:14;;;;;;;4.38;2.88;;;18.00;1.00;;;;;;10358254;28;20399;-78
2022/07/04 03:19:36;;;;;;;6.50;3.38;;;18.00;1.00;;;;;;10355137;28;20198;-76
2022/07/04 03:24:57;;;;;;;6.75;2.83;;;18.00;1.00;;;;;;10340102;28;20401;-76
2022/07/04 03:30:19;;;;;;;3.40;3.10;;;18.10;1.00;;;;;;10353818;28;20213;-76
2022/07/04 03:35:40;;;;;;;3.80;2.67;;;18.20;1.00;;;;;;10354947;28;20380;-76
2022/07/04 03:41:02;;;;;;;3.75;3.05;;;18.30;1.00;;;;;;10354867;28;20410;-76
2022/07/04 03:46:23;;;;;;;6.07;2.50;;;18.40;1.00;;;;;;10354133;28;20236;-76
2022/07/04 03:51:45;;;;;;;5.50;2.72;;;18.40;1.00;;;;;;10353246;28;20248;-77
2022/07/04 03:57:06;;;;;;;3.15;2.58;;;18.40;1.00;;;;;;10372005;28;20763;-79
2022/07/04 04:02:28;;;;;;;2.92;2.20;;;18.40;1.00;;;;;;10354822;28;20194;-76
2022/07/04 04:07:50;;;;;;;2.88;2.38;;;18.40;1.00;;;;;;10353245;28;20190;-77
2022/07/04 04:13:11;;;;;;;3.92;2.13;;;18.50;1.00;;;;;;10352681;28;20233;-78
2022/07/04 04:18:32;;;;;;;2.78;2.40;;;18.50;99.90;;;;;;10345841;28;20201;-77
2022/07/04 04:23:53;;;;;;;3.42;2.15;;;18.70;99.90;;;;;;10361493;28;20204;-79
2022/07/04 04:29:15;;;;;;;4.28;2.28;;;18.80;99.90;;;;;;10361005;28;20194;-76
2022/07/04 04:34:36;;;;;;;9.10;2.67;;;18.90;99.90;;;;;;10360708;28;20245;-78
2022/07/04 04:39:58;;;;;;;5.15;2.53;;;19.00;90.00;;;;;;10361087;28;20220;-79
2022/07/04 04:45:20;;;;;;;4.07;2.95;;;19.00;26.90;;;;;;10360333;28;20200;-78
2022/07/04 04:50:41;;;;;;;5.20;2.97;;;19.00;1.00;;;;;;10360295;28;20297;-79
2022/07/04 04:56:03;;;;;;;4.25;2.80;;;19.20;1.00;;;;;;10369888;28;20402;-77
2022/07/04 05:01:24;;;;;;;5.25;2.72;;;19.30;1.00;;;;;;10363258;28;20214;-80
2022/07/04 05:07:00;;;;;;;3.45;2.53;;;19.50;99.90;;;;;;10344914;28;20206;-77
2022/07/04 05:12:21;;;;;;;3.08;2.50;;;19.70;1.00;;;;;;10330541;28;20288;-80
2022/07/04 05:17:43;;;;;;;3.03;2.28;;;20.10;1.00;;;;;;10358295;28;20264;-77
2022/07/04 05:23:04;;;;;;;9.90;3.85;;;20.40;1.00;;;;;;10358215;28;20198;-77
2022/07/04 05:28:25;;;;;;;7.65;3.10;;;20.50;99.90;;;;;;10358149;28;20264;-77
2022/07/04 05:33:46;;;;;;;6.72;3.30;;;20.50;99.90;;;;;;10374116;28;20240;-78
2022/07/04 05:39:08;;;;;;;5.57;2.60;;;20.50;1.00;;;;;;10318033;28;20191;-77
2022/07/04 05:44:29;;;;;;;2.25;2.05;;;20.50;1.00;;;;;;10317212;28;20194;-78
2022/07/04 05:49:51;;;;;;;3.67;2.40;;;20.60;99.90;;;;;;10316671;28;20230;-77
2022/07/04 05:55:13;;;;;;;2.20;2.00;;;20.90;58.80;;;;;;10345027;28;20229;-78
2022/07/04 06:00:34;;;;;;;4.40;2.95;;;21.40;1.00;;;;;;10369019;28;20198;-78
2022/07/04 06:05:57;;;;;;;3.08;2.50;;;21.80;99.90;;;;;;10357740;28;20194;-77
2022/07/04 06:11:18;;;;;;;6.03;2.58;;;22.30;99.90;;;;;;10356995;28;20272;-77
2022/07/04 06:16:39;;;;;;;3.42;2.45;;;22.40;1.00;;;;;;10355800;28;20229;-77
2022/07/04 06:22:01;;;;;;;4.97;3.28;;;22.40;1.00;;;;;;10356959;28;20193;-79
2022/07/04 06:27:22;;;;;;;3.40;2.80;;;22.40;1.00;;;;;;10369278;28;20204;-79
2022/07/04 06:32:49;;;;;;;3.20;2.60;;;22.40;99.90;;;;;;10369206;28;20244;-77
2022/07/04 06:38:13;;;;;;;3.95;3.20;;;22.60;99.90;;;;;;10354305;28;20213;-79
2022/07/04 06:43:34;;;;;;;7.85;3.20;;;23.00;99.90;;;;;;10356305;28;20194;-80
2022/07/04 06:48:56;;;;;;;4.57;2.53;;;23.00;99.90;;;;;;10355976;28;20263;-77
2022/07/04 06:54:17;;;;;;;3.63;2.33;;;22.90;53.00;;;;;;10354080;28;20235;-78
2022/07/04 06:59:38;;;;;;;3.00;2.60;;;22.60;10.20;;;;;;10375508;28;20209;-78
2022/07/04 07:05:00;;;;;;;2.92;2.25;;;22.30;1.00;;;;;;10356966;28;20196;-77
2022/07/04 07:10:25;;;;;;;3.20;2.85;;;22.00;58.90;;;;;;10327165;28;20243;-80
2022/07/04 07:15:47;;;;;;;5.63;2.97;;;21.80;99.90;;;;;;10346744;28;20217;-76
2022/07/04 07:21:08;;;;;;;12.88;3.30;;;21.70;99.90;;;;;;10358918;28;20205;-80
2022/07/04 07:26:30;;;;;;;4.88;3.38;;;21.50;1.00;;;;;;10343708;28;20354;-79
2022/07/04 07:31:52;;;;;;;6.78;3.38;;;21.10;99.90;;;;;;10317494;28;20556;-76
2022/07/04 07:37:13;;;;;;;3.53;3.22;;;20.70;1.00;;;;;;10323438;28;20201;-78
2022/07/04 07:42:35;;;;;;;4.72;3.55;;;20.60;1.00;;;;;;10318662;28;20378;-81
2022/07/04 07:47:56;;;;;;;3.53;3.00;;;20.50;99.90;;;;;;10349274;28;20245;-81
2022/07/04 07:53:18;;;;;;;3.17;2.80;;;20.30;1.00;;;;;;10369353;28;20233;-75
2022/07/04 07:58:40;;;;;;;2.92;2.42;;;20.20;15.60;;;;;;10349640;28;20210;-82
2022/07/04 08:09:43;;;;;;;3.38;2.72;;;20.20;9.80;;;;;;10337995;28;20198;-83
2022/07/04 08:15:06;;;;;;;3.47;2.97;;;20.10;1.00;;;;;;10339983;28;20225;-78
2022/07/04 08:20:27;;;;;;;8.10;3.75;;;20.10;1.00;;;;;;10344771;28;20214;-80
2022/07/04 08:25:48;;;;;;;3.38;3.08;;;19.80;1.00;;;;;;10346428;28;20221;-80
2022/07/04 08:31:10;;;;;;;6.60;4.05;;;19.70;1.00;;;;;;10352798;28;20271;-78
2022/07/04 08:36:31;;;;;;;4.10;3.67;;;19.70;99.90;;;;;;10340321;28;20218;-79
2022/07/04 08:42:00;;;;;;;4.75;3.65;;;19.40;99.90;;;;;;10352163;28;20388;-76
2022/07/04 08:47:23;;;;;;;4.40;3.50;;;19.30;1.00;;;;;;10364884;28;20307;-76
2022/07/04 08:52:58;;;;;;;5.85;3.17;;;19.30;1.00;;;;;;10368856;28;20237;-77
2022/07/04 08:58:26;;;;;;;6.07;3.88;;;19.40;99.90;;;;;;10383821;28;20263;-81
2022/07/04 09:03:50;;;;;;;3.17;2.58;;;19.50;99.90;;;;;;10365712;28;20213;-77
2022/07/04 09:09:12;;;;;;;2.20;2.00;;;19.70;1.00;;;;;;10327697;28;20689;-75
2022/07/04 09:14:34;;;;;;;5.10;2.83;;;20.00;1.00;;;;;;10352874;28;20279;-77
2022/07/04 09:20:17;;;;;;;2.90;2.13;;;20.80;99.90;;;;;;10351427;28;20202;-77
2022/07/04 09:25:39;;;;;;;1.88;1.77;;;21.60;1.00;;;;;;10334117;28;20207;-80
2022/07/04 09:31:00;;;;;;;5.20;3.05;;;22.30;1.00;;;;;;10386800;28;20215;-76
2022/07/04 09:36:29;;;;;;;2.15;1.67;;;23.70;1.00;;;;;;10377566;28;20535;-78
2022/07/04 09:42:02;;;;;;;2.92;2.00;;;25.50;1.00;;;;;;10348508;28;20440;-78
2022/07/04 09:47:27;;;;;;;1.65;1.50;;;25.30;99.90;;;;;;10350777;28;20252;-77
2022/07/04 09:52:53;;;;;;;1.60;1.50;;;25.00;59.60;;;;;;10344091;28;20224;-80
2022/07/04 09:58:15;;;;;;;5.40;3.28;;;26.00;1.00;;;;;;10352330;28;20256;-76
2022/07/04 10:03:40;;;;;;;2.03;1.83;;;26.40;1.00;;;;;;10348747;28;20209;-77
2022/07/04 10:09:16;;;;;;;2.17;1.98;;;26.40;1.00;;;;;;10352919;28;20449;-81
2022/07/04 10:14:38;;;;;;;1.73;1.60;;;27.20;1.00;;;;;;10309126;28;20269;-76
2022/07/04 10:19:59;;;;;;;2.75;1.98;;;26.90;99.90;;;;;;10344225;28;20274;-77
2022/07/04 10:25:21;;;;;;;2.75;1.98;;;26.50;99.90;;;;;;10349962;28;20198;-77
2022/07/04 10:30:45;;;;;;;2.67;2.20;;;27.00;88.30;;;;;;10327240;28;20489;-77
2022/07/04 10:36:20;;;;;;;1.90;1.65;;;27.40;1.00;;;;;;10310584;28;20241;-74
2022/07/04 10:41:58;;;;;;;1.92;1.60;;;27.10;1.00;;;;;;10342103;28;20206;-80
2022/07/04 10:47:24;;;;;;;1.90;1.70;;;27.40;1.00;;;;;;10321690;28;20234;-77
2022/07/04 10:53:09;;;;;;;1.85;1.73;;;28.20;1.00;;;;;;10317953;28;20292;-76
2022/07/04 10:58:42;;;;;;;2.03;1.77;;;28.50;1.00;;;;;;10318092;28;20209;-78
2022/07/04 11:04:04;;;;;;;1.58;1.35;;;28.90;1.00;;;;;;10337204;28;20199;-75
2022/07/04 11:09:26;;;;;;;1.52;1.05;;;28.90;1.00;;;;;;10334535;28;20387;-76
2022/07/04 11:14:48;;;;;;;2.10;0.80;;;29.20;99.90;;;;;;10349483;28;20240;-80
2022/07/04 11:20:10;;;;;;;0.98;0.88;;;29.30;99.90;;;;;;10348705;28;20205;-80
2022/07/04 11:25:32;;;;;;;3.50;1.35;;;29.50;99.90;;;;;;10349522;28;20249;-75
2022/07/04 11:30:56;;;;;;;1.15;0.95;;;29.60;99.90;;;;;;10325708;28;20199;-78
2022/07/04 11:36:22;;;;;;;2.90;1.17;;;29.70;99.90;;;;;;10308633;28;20257;-77
2022/07/04 11:47:31;;;;;;;1.75;1.17;;;29.60;99.90;;;;;;10350048;28;20308;-76
2022/07/04 11:52:53;;;;;;;2.05;1.17;;;29.60;99.90;;;;;;10325646;28;20277;-75
2022/07/04 11:58:42;;;;;;;4.32;1.15;;;29.60;99.90;;;;;;10350036;28;20265;-78
2022/07/04 12:04:19;;;;;;;1.45;1.10;;;29.40;99.90;;;;;;10348451;28;20460;-77
2022/07/04 12:09:42;;;;;;;2.58;1.63;;;29.60;99.90;;;;;;10336339;28;20221;-78
2022/07/04 12:15:07;;;;;;;7.05;1.25;;;29.70;99.90;;;;;;10308036;28;20229;-81
2022/07/04 12:20:29;;;;;;;1.40;1.02;;;29.20;99.90;;;;;;10301921;28;20288;-77
2022/07/04 12:25:51;;;;;;;3.00;1.20;;;29.40;99.90;;;;;;10348529;28;20508;-78
2022/07/04 12:31:13;;;;;;;3.75;1.40;;;29.30;99.90;;;;;;10329761;28;20206;-79
2022/07/04 12:36:55;;;;;;;6.07;1.88;;;29.60;99.90;;;;;;10335816;28;20277;-77
2022/07/04 12:42:19;;;;;;;2.63;1.50;;;29.10;99.90;;;;;;10342823;28;20412;-84
2022/07/04 12:47:48;;;;;;;4.32;1.80;;;28.70;99.90;;;;;;10341259;28;20245;-82
2022/07/04 12:53:10;;;;;;;3.65;2.00;;;29.00;99.90;;;;;;10323750;28;20228;-79
2022/07/04 12:58:31;;;;;;;1.67;1.45;;;29.30;99.90;;;;;;10353799;28;20224;-80
2022/07/04 13:03:53;;;;;;;1.75;1.63;;;29.30;99.90;;;;;;10334437;28;20212;-81
2022/07/04 13:09:15;;;;;;;1.75;1.63;;;28.90;99.90;;;;;;10305779;28;20365;-79
2022/07/04 13:14:36;;;;;;;2.75;1.83;;;29.10;99.90;;;;;;10319406;28;20245;-82
2022/07/04 13:19:57;;;;;;;2.90;1.40;;;28.60;99.90;;;;;;10338271;28;20197;-81
2022/07/04 13:25:19;;;;;;;2.55;1.42;;;28.00;99.90;;;;;;10338754;28;20209;-84
2022/07/04 13:30:40;;;;;;;1.70;1.60;;;28.20;99.90;;;;;;10345023;28;20204;-79
2022/07/04 13:36:02;;;;;;;2.40;1.65;;;28.00;99.90;;;;;;10353575;28;20233;-79
2022/07/04 13:41:24;;;;;;;6.25;2.55;;;27.50;99.90;;;;;;10318966;28;20594;-77
2022/07/04 13:46:46;;;;;;;13.52;4.55;;;26.90;99.90;;;;;;10311733;28;20253;-80
2022/07/04 13:52:08;;;;;;;14.90;5.43;;;26.00;99.90;;;;;;10313574;28;20297;-79
2022/07/04 13:57:29;;;;;;;4.95;2.67;;;25.10;1.00;;;;;;10368087;28;20194;-78
2022/07/04 14:02:51;;;;;;;7.60;2.13;;;25.00;99.90;;;;;;10357241;28;20255;-77
2022/07/04 14:08:12;;;;;;;3.42;2.35;;;25.10;1.00;;;;;;10338477;28;20246;-79
2022/07/04 14:13:33;;;;;;;4.85;2.03;;;25.10;99.90;;;;;;10351861;28;20227;-81
2022/07/04 14:18:55;;;;;;;5.22;2.15;;;25.30;99.90;;;;;;10355635;28;20545;-80
2022/07/04 14:24:16;;;;;;;4.45;3.00;;;25.20;1.00;;;;;;10352452;28;20279;-78
2022/07/04 14:29:40;;;;;;;2.40;2.20;;;25.10;1.00;;;;;;10369021;28;20197;-77
2022/07/04 14:35:03;;;;;;;2.38;1.65;;;25.00;12.10;;;;;;10338918;28;20221;-78
2022/07/04 14:40:26;;;;;;;2.58;1.83;;;25.00;1.00;;;;;;10367511;28;20243;-77
2022/07/04 14:45:48;;;;;;;2.35;2.08;;;25.10;99.90;;;;;;10347930;28;20291;-80
2022/07/04 14:51:10;;;;;;;2.30;2.05;;;25.10;1.00;;;;;;10370763;28;20205;-78
2022/07/04 14:56:31;;;;;;;2.70;1.88;;;25.00;99.90;;;;;;10371669;28;20738;-81
2022/07/04 15:01:53;;;;;;;5.03;1.90;;;25.20;99.90;;;;;;10354460;28;20194;-77
2022/07/04 15:07:15;;;;;;;2.30;1.50;;;25.20;7.40;;;;;;10365552;28;20198;-77
2022/07/04 15:12:37;;;;;;;1.97;1.50;;;25.20;1.00;;;;;;10315942;28;20625;-78
2022/07/04 15:17:58;;;;;;;2.63;1.60;;;24.90;99.90;;;;;;10331424;28;20460;-77
2022/07/04 15:29:02;;;;;;;2.78;1.30;;;24.80;99.90;;;;;;10347615;28;20507;-80
2022/07/04 15:34:23;;;;;;;1.30;1.20;;;24.80;19.90;;;;;;10334303;28;20221;-77
2022/07/04 15:39:45;;;;;;;3.70;1.55;;;24.70;1.00;;;;;;10351869;28;20217;-76
2022/07/04 15:45:07;;;;;;;1.52;1.20;;;24.70;1.00;;;;;;10353814;28;20198;-78
2022/07/04 15:50:28;;;;;;;4.25;1.40;;;24.60;1.00;;;;;;10354000;28;20217;-76
2022/07/04 15:55:50;;;;;;;3.15;1.58;;;24.40;1.00;;;;;;10354510;28;20447;-77
2022/07/04 16:01:11;;;;;;;4.03;1.40;;;;;;;;;;10354237;28;20208;-77
2022/07/04 16:06:33;;;;;;;3.20;1.95;;;24.30;1.00;;;;;;10354377;28;20296;-76
2022/07/04 16:11:54;;;;;;;3.40;1.40;;;24.20;1.00;;;;;;10355507;28;20198;-77
2022/07/04 16:17:16;;;;;;;2.17;1.35;;;24.10;1.00;;;;;;10361740;28;20205;-76
2022/07/04 16:22:37;;;;;;;1.98;1.05;;;24.10;1.00;;;;;;10335081;28;20281;-77
2022/07/04 16:27:59;;;;;;;1.52;1.10;;;24.00;1.00;;;;;;10321112;28;20488;-77
2022/07/04 16:33:20;;;;;;;2.83;1.30;;;24.00;1.00;;;;;;10345086;28;20233;-77
2022/07/04 16:38:42;;;;;;;7.05;1.67;;;23.80;99.90;;;;;;10360208;28;20197;-76
2022/07/04 16:44:04;;;;;;;3.45;1.42;;;23.60;99.90;;;;;;10359372;28;20514;-78
2022/07/04 16:49:26;;;;;;;3.70;1.27;;;23.50;99.90;;;;;;10359636;28;20234;-76
2022/07/04 16:55:01;;;;;;;1.40;0.88;;;23.50;99.90;;;;;;10359900;28;20228;-76
2022/07/04 17:00:25;;;;;;;1.95;1.10;;;23.30;99.90;;;;;;10372863;28;20269;-77
2022/07/04 17:05:46;;;;;;;1.52;1.08;;;23.20;99.90;;;;;;10360011;28;20268;-77
2022/07/04 17:11:08;;;;;;;2.90;1.13;;;23.00;99.90;;;;;;10319902;28;20206;-77
2022/07/04 17:16:29;;;;;;;3.22;1.60;;;22.90;99.90;;;;;;10323013;28;20247;-76
2022/07/04 17:21:51;;;;;;;1.98;1.10;;;22.90;99.90;;;;;;10318758;28;20205;-75
2022/07/04 17:27:12;;;;;;;1.23;0.80;;;22.80;99.90;;;;;;10319146;28;20373;-78
2022/07/04 17:32:34;;;;;;;2.13;1.08;;;22.80;99.90;;;;;;10318627;28;20215;-78
2022/07/04 17:37:56;;;;;;;2.05;1.20;;;22.80;99.90;;;;;;10337001;28;20355;-76
2022/07/04 17:43:17;;;;;;;2.25;1.27;;;22.70;99.90;;;;;;10358723;28;20384;-76
2022/07/04 17:48:41;;;;;;;2.10;0.93;;;22.50;99.90;;;;;;10356566;28;20289;-76
2022/07/04 17:54:04;;;;;;;1.27;1.00;;;22.30;99.90;;;;;;10357295;28;20213;-76
2022/07/04 17:59:25;;;;;;;1.52;1.00;;;22.20;99.90;;;;;;10357855;28;20190;-77
2022/07/04 18:04:47;;;;;;;2.55;1.10;;;22.10;99.90;;;;;;10357572;28;20413;-76
2022/07/04 18:10:11;;;;;;;2.33;1.23;;;22.00;99.90;;;;;;10357755;28;20194;-76
2022/07/04 18:15:33;;;;;;;1.73;1.17;;;21.80;99.90;;;;;;10357284;28;20224;-77
2022/07/04 18:20:54;;;;;;;3.97;1.65;;;21.70;99.90;;;;;;10350602;28;20202;-79
2022/07/04 18:26:16;;;;;;;3.42;1.30;;;21.60;99.90;;;;;;10348325;28;20240;-76
2022/07/04 18:31:37;;;;;;;1.70;1.60;;;21.60;99.90;;;;;;10369655;28;20197;-76
2022/07/04 18:36:58;;;;;;;3.58;1.63;;;21.50;99.90;;;;;;10354555;28;20229;-76
2022/07/04 18:48:02;;;;;;;2.00;1.00;;;21.30;99.90;;;;;;10356217;28;20246;-76
2022/07/04 18:53:24;;;;;;;3.35;1.10;;;21.20;99.90;;;;;;10354935;28;20292;-76
2022/07/04 18:58:45;;;;;;;1.98;0.90;;;21.00;99.90;;;;;;10367015;28;20186;-77
2022/07/04 19:04:07;;;;;;;2.03;0.93;;;20.90;99.90;;;;;;10355439;28;20246;-75
2022/07/04 19:09:28;;;;;;;3.80;1.10;;;20.70;99.90;;;;;;10355408;28;20198;-77
2022/07/04 19:14:50;;;;;;;4.10;1.00;;;20.70;99.90;;;;;;10354967;28;20586;-76
2022/07/04 19:20:12;;;;;;;1.90;1.00;;;20.60;99.90;;;;;;10353639;28;20198;-76
2022/07/04 19:25:34;;;;;;;1.20;0.90;;;20.50;99.90;;;;;;10354124;28;20205;-75
2022/07/04 19:31:11;;;;;;;1.88;0.90;;;20.50;99.90;;;;;;10354067;28;20517;-76
2022/07/04 19:36:33;;;;;;;1.73;1.23;;;20.40;99.90;;;;;;10354140;28;20402;-76
2022/07/04 19:41:54;;;;;;;1.17;0.95;;;20.30;99.90;;;;;;10354642;28;20301;-76
2022/07/04 19:47:18;;;;;;;2.00;1.20;;;20.30;99.90;;;;;;10358194;28;20427;-76
2022/07/04 19:52:40;;;;;;;1.50;1.13;;;20.20;99.90;;;;;;10362644;28;20244;-76
2022/07/04 19:58:01;;;;;;;2.00;1.33;;;;;;;;;;10361371;28;20193;-76
2022/07/04 20:03:23;;;;;;;2.25;1.10;;;;;;;;;;10362589;28;20190;-76
2022/07/04 20:08:45;;;;;;;2.42;1.10;;;20.00;99.90;;;;;;10361980;28;20425;-76
2022/07/04 20:14:06;;;;;;;4.50;1.33;;;19.90;99.90;;;;;;10374527;28;20611;-75
2022/07/04 20:19:28;;;;;;;2.75;1.80;;;19.80;99.90;;;;;;10361601;28;20309;-76
2022/07/04 20:24:52;;;;;;;3.58;1.80;;;19.70;99.90;;;;;;10355405;28;20202;-76
2022/07/04 20:30:14;;;;;;;1.30;1.00;;;19.50;99.90;;;;;;10346856;28;20482;-76
2022/07/04 20:35:36;;;;;;;1.27;0.88;;;19.50;99.90;;;;;;10346160;28;20297;-75
2022/07/04 20:40:57;;;;;;;1.88;1.40;;;19.40;99.90;;;;;;10374066;28;20209;-77
2022/07/04 20:46:18;;;;;;;4.30;2.13;;;19.30;99.90;;;;;;10360269;28;20543;-79
2022/07/04 20:51:42;;;;;;;7.97;2.90;;;19.10;99.90;;;;;;10359937;28;20202;-77
2022/07/04 20:57:05;;;;;;;6.13;3.40;;;19.00;1.00;;;;;;10359385;28;20243;-76
2022/07/04 21:02:26;;;;;;;7.93;3.83;;;18.90;1.00;;;;;;10360193;28;20190;-77
2022/07/04 21:07:48;;;;;;;4.95;2.60;;;18.80;1.00;;;;;;10358523;28;20201;-77
2022/07/04 21:13:10;;;;;;;4.65;2.15;;;18.70;1.00;;;;;;10344763;28;20280;-76
2022/07/04 21:18:31;;;;;;;3.50;1.65;;;18.70;1.00;;;;;;10360035;28;20194;-76
2022/07/04 21:23:53;;;;;;;2.00;1.42;;;18.70;1.00;;;;;;10359265;28;20201;-75
2022/07/04 21:29:14;;;;;;;2.50;1.60;;;18.50;1.00;;;;;;10359211;28;20196;-76
2022/07/04 21:34:35;;;;;;;2.58;1.88;;;18.40;1.00;;;;;;10359064;28;20228;-76
2022/07/04 21:39:57;;;;;;;4.45;1.58;;;18.20;1.00;;;;;;10358733;28;20194;-75
2022/07/04 21:45:18;;;;;;;2.15;1.50;;;18.10;1.00;;;;;;10358344;28;20205;-76
2022/07/04 21:50:40;;;;;;;1.70;1.30;;;18.00;1.00;;;;;;10358571;28;20196;-76
2022/07/04 21:56:01;;;;;;;2.55;1.70;;;17.90;99.90;;;;;;10357347;28;20237;-76
2022/07/04 22:01:22;;;;;;;1.38;1.25;;;17.80;99.90;;;;;;10357219;28;20190;-76
2022/07/04 22:06:43;;;;;;;3.47;2.38;;;17.70;1.00;;;;;;10357363;28;20201;-76
2022/07/04 22:12:05;;;;;;;3.67;2.15;;;17.60;1.00;;;;;;10356002;28;20194;-76
2022/07/04 22:17:27;;;;;;;4.10;2.60;;;17.50;99.90;;;;;;10357378;28;20416;-76
2022/07/04 22:22:48;;;;;;;3.33;2.38;;;17.30;1.00;;;;;;10356875;28;20197;-75
2022/07/04 22:28:10;;;;;;;8.20;3.88;;;17.20;1.00;;;;;;10356837;28;20236;-75
2022/07/04 22:33:32;;;;;;;6.43;3.05;;;17.10;1.00;;;;;;10356791;28;20216;-75
2022/07/04 22:38:53;;;;;;;4.50;2.70;;;17.00;99.90;;;;;;10356370;28;20202;-75
2022/07/04 22:44:15;;;;;;;4.10;2.50;;;17.00;1.00;;;;;;10355855;28;20483;-75
2022/07/04 22:49:36;;;;;;;5.32;2.90;;;16.90;1.00;;;;;;10356059;28;20292;-76
2022/07/04 22:54:58;;;;;;;3.28;2.47;;;16.90;1.00;;;;;;10354697;28;20225;-75
2022/07/04 23:06:34;;;;;;;4.63;2.85;;;16.80;47.20;;;;;;10359637;28;20240;-75
2022/07/04 23:11:55;;;;;;;5.53;2.40;;;16.70;99.90;;;;;;10357594;28;20213;-75
2022/07/04 23:17:17;;;;;;;4.68;2.83;;;16.70;1.00;;;;;;10354226;28;20233;-76
2022/07/04 23:22:38;;;;;;;6.47;2.78;;;16.60;1.00;;;;;;10339680;28;20200;-75
2022/07/04 23:27:59;;;;;;;3.45;2.40;;;16.60;40.20;;;;;;10304041;28;20222;-75
2022/07/04 23:33:21;;;;;;;5.78;2.63;;;16.50;1.00;;;;;;10313426;28;20238;-75
2022/07/04 23:38:42;;;;;;;5.47;2.92;;;16.50;99.90;;;;;;10327427;28;20228;-76
2022/07/04 23:44:04;;;;;;;4.18;2.85;;;16.40;99.90;;;;;;10338049;28;20194;-75
2022/07/04 23:49:26;;;;;;;5.75;2.72;;;16.40;1.00;;;;;;10354320;28;20243;-76
2022/07/04 23:54:48;;;;;;;4.80;2.95;;;16.30;1.00;;;;;;10354451;28;20221;-75
